Terminal Aerodrome Forecast
Issued by NWS Pueblo, CO

Home | Current Version | Previous Version | Text Only | Print | Product List | Glossary On
Versions: 1 2 3 4 5 6 7 8 9 10 11 12 13 14 15 16 17 18 19 20 21 22 23 24 25 26 27 28
000
FTUS45 KPUB 260206 AAB
TAFALS
TAF AMD
KALS 260206Z 2602/2624 16010KT P6SM VCSH SCT030 BKN060
      TEMPO 2602/2606 2SM -SHSN BR BKN020
     FM260600 11010KT 3SM -SN OVC015=

USA.gov is the U.S. government's official web portal to all federal, state and local government web resources and services.